sensor_id;sensor_type;location;lat;lon;timestamp;P1;durP1;ratioP1;P2;durP2;ratioP2
15990;SDS011;8100;50.994;4.538;2023-03-14T00:00:15;3.70;;;1.00;;
15990;SDS011;8100;50.994;4.538;2023-03-14T00:03:04;6.45;;;0.80;;
15990;SDS011;8100;50.994;4.538;2023-03-14T00:05:51;5.88;;;1.00;;
15990;SDS011;8100;50.994;4.538;2023-03-14T00:08:39;3.35;;;0.80;;
15990;SDS011;8100;50.994;4.538;2023-03-14T00:11:26;3.80;;;0.88;;
15990;SDS011;8100;50.994;4.538;2023-03-14T00:14:15;4.88;;;0.80;;
15990;SDS011;8100;50.994;4.538;2023-03-14T00:17:02;2.42;;;1.00;;
15990;SDS011;8100;50.994;4.538;2023-03-14T00:19:50;4.55;;;0.90;;
15990;SDS011;8100;50.994;4.538;2023-03-14T00:22:39;5.57;;;0.90;;
15990;SDS011;8100;50.994;4.538;2023-03-14T00:25:27;3.17;;;0.98;;
15990;SDS011;8100;50.994;4.538;2023-03-14T00:28:14;4.88;;;0.82;;
15990;SDS011;8100;50.994;4.538;2023-03-14T00:31:02;4.57;;;1.05;;
15990;SDS011;8100;50.994;4.538;2023-03-14T00:33:51;5.65;;;1.23;;
15990;SDS011;8100;50.994;4.538;2023-03-14T00:36:40;2.55;;;0.75;;
15990;SDS011;8100;50.994;4.538;2023-03-14T00:39:27;4.60;;;1.25;;
15990;SDS011;8100;50.994;4.538;2023-03-14T00:42:14;5.05;;;1.20;;
15990;SDS011;8100;50.994;4.538;2023-03-14T00:45:01;2.13;;;0.73;;
15990;SDS011;8100;50.994;4.538;2023-03-14T00:47:50;3.65;;;1.00;;
15990;SDS011;8100;50.994;4.538;2023-03-14T00:50:37;4.53;;;1.23;;
15990;SDS011;8100;50.994;4.538;2023-03-14T00:53:26;6.47;;;1.10;;
15990;SDS011;8100;50.994;4.538;2023-03-14T00:56:13;3.60;;;0.82;;
15990;SDS011;8100;50.994;4.538;2023-03-14T00:59:00;5.57;;;1.10;;
15990;SDS011;8100;50.994;4.538;2023-03-14T01:01:47;4.15;;;1.23;;
15990;SDS011;8100;50.994;4.538;2023-03-14T01:04:34;4.03;;;1.00;;
15990;SDS011;8100;50.994;4.538;2023-03-14T01:07:23;5.78;;;1.25;;
15990;SDS011;8100;50.994;4.538;2023-03-14T01:10:11;3.53;;;0.98;;
15990;SDS011;8100;50.994;4.538;2023-03-14T01:12:59;6.07;;;1.50;;
15990;SDS011;8100;50.994;4.538;2023-03-14T01:15:46;6.40;;;1.10;;
15990;SDS011;8100;50.994;4.538;2023-03-14T01:18:33;6.95;;;1.60;;
15990;SDS011;8100;50.994;4.538;2023-03-14T01:21:21;5.78;;;1.20;;
15990;SDS011;8100;50.994;4.538;2023-03-14T01:24:10;5.90;;;1.00;;
15990;SDS011;8100;50.994;4.538;2023-03-14T01:26:59;5.45;;;1.13;;
15990;SDS011;8100;50.994;4.538;2023-03-14T01:29:46;6.32;;;1.40;;
15990;SDS011;8100;50.994;4.538;2023-03-14T01:32:33;7.40;;;1.30;;
15990;SDS011;8100;50.994;4.538;2023-03-14T01:35:21;6.55;;;1.08;;
15990;SDS011;8100;50.994;4.538;2023-03-14T01:38:08;4.53;;;1.10;;
15990;SDS011;8100;50.994;4.538;2023-03-14T01:40:55;4.30;;;1.00;;
15990;SDS011;8100;50.994;4.538;2023-03-14T01:43:44;7.57;;;1.42;;
15990;SDS011;8100;50.994;4.538;2023-03-14T01:46:33;5.15;;;1.10;;
15990;SDS011;8100;50.994;4.538;2023-03-14T01:49:24;7.28;;;1.50;;
15990;SDS011;8100;50.994;4.538;2023-03-14T01:52:15;7.55;;;1.30;;
15990;SDS011;8100;50.994;4.538;2023-03-14T01:55:05;5.80;;;0.95;;
15990;SDS011;8100;50.994;4.538;2023-03-14T01:57:55;7.15;;;1.20;;
15990;SDS011;8100;50.994;4.538;2023-03-14T02:00:48;5.55;;;1.10;;
15990;SDS011;8100;50.994;4.538;2023-03-14T02:03:36;6.15;;;1.10;;
15990;SDS011;8100;50.994;4.538;2023-03-14T02:06:32;6.45;;;1.27;;
15990;SDS011;8100;50.994;4.538;2023-03-14T02:09:25;6.72;;;1.05;;
15990;SDS011;8100;50.994;4.538;2023-03-14T02:12:14;5.38;;;1.15;;
15990;SDS011;8100;50.994;4.538;2023-03-14T02:15:03;3.42;;;0.90;;
15990;SDS011;8100;50.994;4.538;2023-03-14T02:17:52;3.65;;;0.73;;
15990;SDS011;8100;50.994;4.538;2023-03-14T02:20:41;3.70;;;0.80;;
15990;SDS011;8100;50.994;4.538;2023-03-14T02:23:36;4.05;;;0.77;;
15990;SDS011;8100;50.994;4.538;2023-03-14T02:26:32;5.50;;;0.90;;
15990;SDS011;8100;50.994;4.538;2023-03-14T02:29:25;2.55;;;0.80;;
15990;SDS011;8100;50.994;4.538;2023-03-14T02:32:14;2.45;;;0.80;;
15990;SDS011;8100;50.994;4.538;2023-03-14T02:35:05;4.10;;;0.60;;
15990;SDS011;8100;50.994;4.538;2023-03-14T02:37:56;1.98;;;0.50;;
15990;SDS011;8100;50.994;4.538;2023-03-14T02:40:49;3.33;;;0.70;;
15990;SDS011;8100;50.994;4.538;2023-03-14T02:43:37;3.75;;;0.70;;
15990;SDS011;8100;50.994;4.538;2023-03-14T02:46:25;2.85;;;0.70;;
15990;SDS011;8100;50.994;4.538;2023-03-14T02:49:13;4.80;;;0.65;;
15990;SDS011;8100;50.994;4.538;2023-03-14T02:52:01;3.90;;;0.73;;
15990;SDS011;8100;50.994;4.538;2023-03-14T02:54:48;4.03;;;0.70;;
15990;SDS011;8100;50.994;4.538;2023-03-14T02:57:35;2.78;;;0.63;;
15990;SDS011;8100;50.994;4.538;2023-03-14T03:00:22;1.75;;;0.52;;
15990;SDS011;8100;50.994;4.538;2023-03-14T03:03:11;3.28;;;0.63;;
15990;SDS011;8100;50.994;4.538;2023-03-14T03:05:59;2.80;;;0.63;;
15990;SDS011;8100;50.994;4.538;2023-03-14T03:08:46;3.28;;;0.60;;
15990;SDS011;8100;50.994;4.538;2023-03-14T03:11:33;1.40;;;0.35;;
15990;SDS011;8100;50.994;4.538;2023-03-14T03:14:21;2.17;;;0.55;;
15990;SDS011;8100;50.994;4.538;2023-03-14T03:17:08;2.40;;;0.60;;
15990;SDS011;8100;50.994;4.538;2023-03-14T03:19:56;2.10;;;0.70;;
15990;SDS011;8100;50.994;4.538;2023-03-14T03:22:44;2.67;;;0.68;;
15990;SDS011;8100;50.994;4.538;2023-03-14T03:25:31;3.53;;;0.93;;
15990;SDS011;8100;50.994;4.538;2023-03-14T03:28:18;3.55;;;0.85;;
15990;SDS011;8100;50.994;4.538;2023-03-14T03:31:06;4.03;;;0.88;;
15990;SDS011;8100;50.994;4.538;2023-03-14T03:33:54;1.08;;;0.52;;
15990;SDS011;8100;50.994;4.538;2023-03-14T03:36:43;4.20;;;1.10;;
15990;SDS011;8100;50.994;4.538;2023-03-14T03:39:31;3.78;;;1.23;;
15990;SDS011;8100;50.994;4.538;2023-03-14T03:42:18;3.97;;;1.00;;
15990;SDS011;8100;50.994;4.538;2023-03-14T03:45:06;3.10;;;0.85;;
15990;SDS011;8100;50.994;4.538;2023-03-14T03:47:54;2.17;;;0.85;;
15990;SDS011;8100;50.994;4.538;2023-03-14T03:50:43;5.93;;;1.30;;
15990;SDS011;8100;50.994;4.538;2023-03-14T03:53:32;3.00;;;0.80;;
15990;SDS011;8100;50.994;4.538;2023-03-14T03:56:20;6.70;;;1.33;;
15990;SDS011;8100;50.994;4.538;2023-03-14T03:59:07;6.32;;;1.15;;
15990;SDS011;8100;50.994;4.538;2023-03-14T04:01:54;4.90;;;1.05;;
15990;SDS011;8100;50.994;4.538;2023-03-14T04:04:41;5.68;;;1.52;;
15990;SDS011;8100;50.994;4.538;2023-03-14T04:07:31;4.88;;;1.50;;
15990;SDS011;8100;50.994;4.538;2023-03-14T04:10:19;2.70;;;1.40;;
15990;SDS011;8100;50.994;4.538;2023-03-14T04:13:06;6.60;;;1.77;;
15990;SDS011;8100;50.994;4.538;2023-03-14T04:15:54;4.55;;;1.55;;
15990;SDS011;8100;50.994;4.538;2023-03-14T04:18:42;6.05;;;1.50;;
15990;SDS011;8100;50.994;4.538;2023-03-14T04:21:29;4.45;;;1.55;;
15990;SDS011;8100;50.994;4.538;2023-03-14T04:24:16;4.57;;;1.63;;
15990;SDS011;8100;50.994;4.538;2023-03-14T04:27:05;5.53;;;2.00;;
15990;SDS011;8100;50.994;4.538;2023-03-14T04:29:52;4.03;;;1.80;;
15990;SDS011;8100;50.994;4.538;2023-03-14T04:32:39;4.20;;;1.73;;
15990;SDS011;8100;50.994;4.538;2023-03-14T04:35:26;9.15;;;1.63;;
15990;SDS011;8100;50.994;4.538;2023-03-14T04:38:13;3.33;;;1.60;;
15990;SDS011;8100;50.994;4.538;2023-03-14T04:41:01;2.33;;;1.40;;
15990;SDS011;8100;50.994;4.538;2023-03-14T04:43:50;5.60;;;1.55;;
15990;SDS011;8100;50.994;4.538;2023-03-14T04:46:37;2.92;;;1.20;;
15990;SDS011;8100;50.994;4.538;2023-03-14T04:49:24;6.85;;;1.50;;
15990;SDS011;8100;50.994;4.538;2023-03-14T04:52:11;3.33;;;1.27;;
15990;SDS011;8100;50.994;4.538;2023-03-14T04:54:58;4.97;;;1.48;;
15990;SDS011;8100;50.994;4.538;2023-03-14T04:57:46;3.35;;;1.30;;
15990;SDS011;8100;50.994;4.538;2023-03-14T05:00:34;5.22;;;1.00;;
15990;SDS011;8100;50.994;4.538;2023-03-14T05:03:21;4.43;;;1.42;;
15990;SDS011;8100;50.994;4.538;2023-03-14T05:06:08;4.45;;;1.45;;
15990;SDS011;8100;50.994;4.538;2023-03-14T05:08:56;3.05;;;1.30;;
15990;SDS011;8100;50.994;4.538;2023-03-14T05:11:43;3.85;;;1.40;;
15990;SDS011;8100;50.994;4.538;2023-03-14T05:14:30;3.42;;;1.40;;
15990;SDS011;8100;50.994;4.538;2023-03-14T05:17:19;4.72;;;1.13;;
15990;SDS011;8100;50.994;4.538;2023-03-14T05:20:06;2.83;;;1.02;;
15990;SDS011;8100;50.994;4.538;2023-03-14T05:22:58;4.05;;;1.30;;
15990;SDS011;8100;50.994;4.538;2023-03-14T05:25:45;4.40;;;1.17;;
15990;SDS011;8100;50.994;4.538;2023-03-14T05:28:32;3.40;;;1.20;;
15990;SDS011;8100;50.994;4.538;2023-03-14T05:31:19;2.58;;;1.10;;
15990;SDS011;8100;50.994;4.538;2023-03-14T05:34:08;2.58;;;1.10;;
15990;SDS011;8100;50.994;4.538;2023-03-14T05:36:55;3.60;;;1.25;;
15990;SDS011;8100;50.994;4.538;2023-03-14T05:39:42;2.17;;;1.00;;
15990;SDS011;8100;50.994;4.538;2023-03-14T05:42:30;1.02;;;0.80;;
15990;SDS011;8100;50.994;4.538;2023-03-14T05:45:17;2.03;;;0.90;;
15990;SDS011;8100;50.994;4.538;2023-03-14T05:48:04;2.50;;;0.98;;
15990;SDS011;8100;50.994;4.538;2023-03-14T05:50:55;3.63;;;1.00;;
15990;SDS011;8100;50.994;4.538;2023-03-14T05:53:44;2.05;;;0.85;;
15990;SDS011;8100;50.994;4.538;2023-03-14T05:56:31;2.63;;;1.10;;
15990;SDS011;8100;50.994;4.538;2023-03-14T05:59:19;3.20;;;1.20;;
15990;SDS011;8100;50.994;4.538;2023-03-14T06:02:06;2.72;;;1.08;;
15990;SDS011;8100;50.994;4.538;2023-03-14T06:04:53;3.17;;;1.23;;
15990;SDS011;8100;50.994;4.538;2023-03-14T06:07:42;4.50;;;1.10;;
15990;SDS011;8100;50.994;4.538;2023-03-14T06:10:29;2.28;;;1.10;;
15990;SDS011;8100;50.994;4.538;2023-03-14T06:13:16;2.58;;;0.80;;
15990;SDS011;8100;50.994;4.538;2023-03-14T06:16:04;2.03;;;1.00;;
15990;SDS011;8100;50.994;4.538;2023-03-14T06:18:52;1.65;;;0.90;;
15990;SDS011;8100;50.994;4.538;2023-03-14T06:21:39;1.80;;;0.98;;
15990;SDS011;8100;50.994;4.538;2023-03-14T06:24:27;3.35;;;1.40;;
15990;SDS011;8100;50.994;4.538;2023-03-14T06:27:14;4.03;;;1.80;;
15990;SDS011;8100;50.994;4.538;2023-03-14T06:30:02;3.65;;;1.35;;
15990;SDS011;8100;50.994;4.538;2023-03-14T06:32:50;2.60;;;1.33;;
15990;SDS011;8100;50.994;4.538;2023-03-14T06:35:37;2.67;;;1.38;;
15990;SDS011;8100;50.994;4.538;2023-03-14T06:38:25;2.83;;;1.83;;
15990;SDS011;8100;50.994;4.538;2023-03-14T06:41:13;4.78;;;1.70;;
15990;SDS011;8100;50.994;4.538;2023-03-14T06:44:01;2.28;;;1.40;;
15990;SDS011;8100;50.994;4.538;2023-03-14T06:46:48;3.63;;;1.80;;
15990;SDS011;8100;50.994;4.538;2023-03-14T06:49:35;3.00;;;1.42;;
15990;SDS011;8100;50.994;4.538;2023-03-14T06:52:22;3.45;;;1.00;;
15990;SDS011;8100;50.994;4.538;2023-03-14T06:55:09;0.73;;;0.43;;
15990;SDS011;8100;50.994;4.538;2023-03-14T06:57:58;0.70;;;0.60;;
15990;SDS011;8100;50.994;4.538;2023-03-14T07:00:45;1.30;;;0.50;;
15990;SDS011;8100;50.994;4.538;2023-03-14T07:03:32;0.63;;;0.30;;
15990;SDS011;8100;50.994;4.538;2023-03-14T07:06:20;1.05;;;0.40;;
15990;SDS011;8100;50.994;4.538;2023-03-14T07:09:08;0.60;;;0.38;;
15990;SDS011;8100;50.994;4.538;2023-03-14T07:11:55;1.52;;;0.50;;
15990;SDS011;8100;50.994;4.538;2023-03-14T07:14:44;1.05;;;0.55;;
15990;SDS011;8100;50.994;4.538;2023-03-14T07:17:31;2.78;;;0.57;;
15990;SDS011;8100;50.994;4.538;2023-03-14T07:20:18;2.90;;;0.60;;
15990;SDS011;8100;50.994;4.538;2023-03-14T07:23:06;0.98;;;0.40;;
15990;SDS011;8100;50.994;4.538;2023-03-14T07:25:53;1.70;;;0.60;;
15990;SDS011;8100;50.994;4.538;2023-03-14T07:28:40;1.58;;;0.50;;
15990;SDS011;8100;50.994;4.538;2023-03-14T07:31:29;1.80;;;0.55;;
15990;SDS011;8100;50.994;4.538;2023-03-14T07:34:17;0.70;;;0.60;;
15990;SDS011;8100;50.994;4.538;2023-03-14T07:37:05;2.00;;;0.60;;
15990;SDS011;8100;50.994;4.538;2023-03-14T07:39:52;2.63;;;0.77;;
15990;SDS011;8100;50.994;4.538;2023-03-14T07:42:39;2.67;;;0.70;;
15990;SDS011;8100;50.994;4.538;2023-03-14T07:45:27;2.40;;;0.70;;
15990;SDS011;8100;50.994;4.538;2023-03-14T07:48:15;4.07;;;0.95;;
15990;SDS011;8100;50.994;4.538;2023-03-14T07:51:03;1.95;;;0.68;;
15990;SDS011;8100;50.994;4.538;2023-03-14T07:53:50;1.40;;;0.60;;
15990;SDS011;8100;50.994;4.538;2023-03-14T07:56:37;3.78;;;0.82;;
15990;SDS011;8100;50.994;4.538;2023-03-14T07:59:24;2.28;;;0.60;;
15990;SDS011;8100;50.994;4.538;2023-03-14T08:02:12;3.60;;;0.75;;
15990;SDS011;8100;50.994;4.538;2023-03-14T08:05:00;3.97;;;0.88;;
15990;SDS011;8100;50.994;4.538;2023-03-14T08:07:47;1.85;;;0.70;;
15990;SDS011;8100;50.994;4.538;2023-03-14T08:10:35;2.50;;;0.80;;
15990;SDS011;8100;50.994;4.538;2023-03-14T08:13:22;2.40;;;0.70;;
15990;SDS011;8100;50.994;4.538;2023-03-14T08:16:11;2.83;;;0.90;;
15990;SDS011;8100;50.994;4.538;2023-03-14T08:18:58;4.07;;;0.85;;
15990;SDS011;8100;50.994;4.538;2023-03-14T08:21:46;2.65;;;1.00;;
15990;SDS011;8100;50.994;4.538;2023-03-14T08:24:34;2.25;;;0.80;;
15990;SDS011;8100;50.994;4.538;2023-03-14T08:27:21;3.55;;;0.80;;
15990;SDS011;8100;50.994;4.538;2023-03-14T08:30:09;3.65;;;0.80;;
15990;SDS011;8100;50.994;4.538;2023-03-14T08:32:57;2.90;;;0.50;;
15990;SDS011;8100;50.994;4.538;2023-03-14T08:35:44;2.97;;;0.77;;
15990;SDS011;8100;50.994;4.538;2023-03-14T08:38:33;2.03;;;0.65;;
15990;SDS011;8100;50.994;4.538;2023-03-14T08:41:20;1.05;;;0.52;;
15990;SDS011;8100;50.994;4.538;2023-03-14T08:44:08;2.78;;;0.85;;
15990;SDS011;8100;50.994;4.538;2023-03-14T08:46:56;1.42;;;0.60;;
15990;SDS011;8100;50.994;4.538;2023-03-14T08:49:44;3.80;;;0.60;;
15990;SDS011;8100;50.994;4.538;2023-03-14T08:52:31;2.28;;;0.80;;
15990;SDS011;8100;50.994;4.538;2023-03-14T08:55:19;2.20;;;0.60;;
15990;SDS011;8100;50.994;4.538;2023-03-14T08:58:07;1.08;;;0.52;;
15990;SDS011;8100;50.994;4.538;2023-03-14T09:00:54;1.13;;;0.50;;
15990;SDS011;8100;50.994;4.538;2023-03-14T09:03:41;5.22;;;0.70;;
15990;SDS011;8100;50.994;4.538;2023-03-14T09:06:29;2.30;;;0.65;;
15990;SDS011;8100;50.994;4.538;2023-03-14T09:09:16;2.75;;;0.80;;
15990;SDS011;8100;50.994;4.538;2023-03-14T09:12:05;1.88;;;0.82;;
15990;SDS011;8100;50.994;4.538;2023-03-14T09:14:52;5.47;;;0.90;;
15990;SDS011;8100;50.994;4.538;2023-03-14T09:17:39;3.65;;;0.90;;
15990;SDS011;8100;50.994;4.538;2023-03-14T09:20:29;1.38;;;0.68;;
15990;SDS011;8100;50.994;4.538;2023-03-14T09:23:16;3.95;;;1.05;;
15990;SDS011;8100;50.994;4.538;2023-03-14T09:26:03;3.50;;;1.33;;
15990;SDS011;8100;50.994;4.538;2023-03-14T09:28:52;2.60;;;1.30;;
15990;SDS011;8100;50.994;4.538;2023-03-14T09:31:39;4.97;;;1.50;;
15990;SDS011;8100;50.994;4.538;2023-03-14T09:34:26;2.42;;;1.25;;
15990;SDS011;8100;50.994;4.538;2023-03-14T09:37:13;2.40;;;1.42;;
15990;SDS011;8100;50.994;4.538;2023-03-14T09:40:02;3.65;;;1.30;;
15990;SDS011;8100;50.994;4.538;2023-03-14T09:42:57;3.60;;;1.40;;
15990;SDS011;8100;50.994;4.538;2023-03-14T09:45:46;2.40;;;1.20;;
15990;SDS011;8100;50.994;4.538;2023-03-14T09:48:34;2.90;;;1.58;;
15990;SDS011;8100;50.994;4.538;2023-03-14T09:51:21;3.15;;;1.50;;
15990;SDS011;8100;50.994;4.538;2023-03-14T09:54:11;5.78;;;1.70;;
15990;SDS011;8100;50.994;4.538;2023-03-14T09:57:14;3.70;;;1.77;;
15990;SDS011;8100;50.994;4.538;2023-03-14T10:00:04;5.82;;;1.55;;
15990;SDS011;8100;50.994;4.538;2023-03-14T10:03:05;2.90;;;1.70;;
15990;SDS011;8100;50.994;4.538;2023-03-14T10:06:10;3.88;;;1.67;;
15990;SDS011;8100;50.994;4.538;2023-03-14T10:08:59;2.92;;;1.75;;
15990;SDS011;8100;50.994;4.538;2023-03-14T10:11:47;3.40;;;1.60;;
15990;SDS011;8100;50.994;4.538;2023-03-14T10:14:35;2.20;;;1.50;;
15990;SDS011;8100;50.994;4.538;2023-03-14T10:17:23;2.75;;;1.30;;
15990;SDS011;8100;50.994;4.538;2023-03-14T10:23:26;3.72;;;1.60;;
15990;SDS011;8100;50.994;4.538;2023-03-14T10:26:15;2.50;;;1.50;;
15990;SDS011;8100;50.994;4.538;2023-03-14T10:29:03;2.22;;;1.25;;
15990;SDS011;8100;50.994;4.538;2023-03-14T10:31:58;3.05;;;1.20;;
15990;SDS011;8100;50.994;4.538;2023-03-14T10:35:03;1.58;;;0.77;;
15990;SDS011;8100;50.994;4.538;2023-03-14T10:37:57;1.02;;;0.70;;
15990;SDS011;8100;50.994;4.538;2023-03-14T10:40:47;1.20;;;0.40;;
15990;SDS011;8100;50.994;4.538;2023-03-14T10:43:38;1.08;;;0.60;;
15990;SDS011;8100;50.994;4.538;2023-03-14T10:46:26;1.60;;;0.55;;
15990;SDS011;8100;50.994;4.538;2023-03-14T10:49:23;2.63;;;0.60;;
15990;SDS011;8100;50.994;4.538;2023-03-14T10:52:15;1.88;;;0.68;;
15990;SDS011;8100;50.994;4.538;2023-03-14T10:55:10;1.98;;;0.75;;
15990;SDS011;8100;50.994;4.538;2023-03-14T10:57:59;0.90;;;0.40;;
15990;SDS011;8100;50.994;4.538;2023-03-14T11:00:46;1.50;;;0.40;;
15990;SDS011;8100;50.994;4.538;2023-03-14T11:03:37;0.52;;;0.50;;
15990;SDS011;8100;50.994;4.538;2023-03-14T11:06:36;1.33;;;0.40;;
15990;SDS011;8100;50.994;4.538;2023-03-14T11:09:29;1.30;;;0.70;;
15990;SDS011;8100;50.994;4.538;2023-03-14T11:12:30;2.15;;;0.50;;
15990;SDS011;8100;50.994;4.538;2023-03-14T11:15:27;2.70;;;0.40;;
15990;SDS011;8100;50.994;4.538;2023-03-14T11:18:21;1.48;;;0.60;;
15990;SDS011;8100;50.994;4.538;2023-03-14T11:21:35;1.70;;;0.40;;
15990;SDS011;8100;50.994;4.538;2023-03-14T11:24:31;1.17;;;0.45;;
15990;SDS011;8100;50.994;4.538;2023-03-14T11:27:30;2.35;;;0.50;;
15990;SDS011;8100;50.994;4.538;2023-03-14T11:30:27;0.60;;;0.40;;
15990;SDS011;8100;50.994;4.538;2023-03-14T11:33:22;1.52;;;0.50;;
15990;SDS011;8100;50.994;4.538;2023-03-14T11:36:14;1.17;;;0.30;;
15990;SDS011;8100;50.994;4.538;2023-03-14T11:39:08;0.82;;;0.50;;
15990;SDS011;8100;50.994;4.538;2023-03-14T11:42:00;1.45;;;0.38;;
15990;SDS011;8100;50.994;4.538;2023-03-14T11:44:49;1.52;;;0.38;;
15990;SDS011;8100;50.994;4.538;2023-03-14T11:47:37;1.13;;;0.43;;
15990;SDS011;8100;50.994;4.538;2023-03-14T11:50:27;2.95;;;0.80;;
15990;SDS011;8100;50.994;4.538;2023-03-14T11:53:17;1.95;;;0.63;;
15990;SDS011;8100;50.994;4.538;2023-03-14T11:56:09;0.82;;;0.50;;
15990;SDS011;8100;50.994;4.538;2023-03-14T11:59:09;1.60;;;0.60;;
15990;SDS011;8100;50.994;4.538;2023-03-14T12:02:03;2.65;;;0.60;;
15990;SDS011;8100;50.994;4.538;2023-03-14T12:05:13;0.90;;;0.52;;
15990;SDS011;8100;50.994;4.538;2023-03-14T12:08:29;2.17;;;0.60;;
15990;SDS011;8100;50.994;4.538;2023-03-14T12:11:32;5.95;;;1.60;;
15990;SDS011;8100;50.994;4.538;2023-03-14T12:14:23;3.28;;;1.00;;
15990;SDS011;8100;50.994;4.538;2023-03-14T12:17:20;4.93;;;0.82;;
15990;SDS011;8100;50.994;4.538;2023-03-14T12:20:15;2.95;;;0.90;;
15990;SDS011;8100;50.994;4.538;2023-03-14T12:23:05;3.08;;;0.77;;
15990;SDS011;8100;50.994;4.538;2023-03-14T12:26:08;2.88;;;0.80;;
15990;SDS011;8100;50.994;4.538;2023-03-14T12:29:14;3.10;;;0.80;;
15990;SDS011;8100;50.994;4.538;2023-03-14T12:32:07;4.90;;;1.15;;
15990;SDS011;8100;50.994;4.538;2023-03-14T12:35:30;2.67;;;1.00;;
15990;SDS011;8100;50.994;4.538;2023-03-14T12:38:23;4.68;;;0.90;;
15990;SDS011;8100;50.994;4.538;2023-03-14T12:41:17;3.83;;;1.15;;
15990;SDS011;8100;50.994;4.538;2023-03-14T12:51:00;4.75;;;1.10;;
15990;SDS011;8100;50.994;4.538;2023-03-14T12:57:15;2.83;;;1.00;;
15990;SDS011;8100;50.994;4.538;2023-03-14T13:00:16;4.53;;;1.20;;
15990;SDS011;8100;50.994;4.538;2023-03-14T13:03:13;5.50;;;1.40;;
15990;SDS011;8100;50.994;4.538;2023-03-14T13:06:09;7.35;;;1.13;;
15990;SDS011;8100;50.994;4.538;2023-03-14T13:08:57;7.40;;;1.73;;
15990;SDS011;8100;50.994;4.538;2023-03-14T13:11:44;6.30;;;1.67;;
15990;SDS011;8100;50.994;4.538;2023-03-14T13:14:32;5.53;;;1.38;;
15990;SDS011;8100;50.994;4.538;2023-03-14T13:17:22;7.82;;;1.30;;
15990;SDS011;8100;50.994;4.538;2023-03-14T13:20:15;5.47;;;1.20;;
15990;SDS011;8100;50.994;4.538;2023-03-14T13:23:18;6.35;;;1.27;;
15990;SDS011;8100;50.994;4.538;2023-03-14T13:26:09;8.57;;;1.55;;
15990;SDS011;8100;50.994;4.538;2023-03-14T13:29:00;9.15;;;1.48;;
15990;SDS011;8100;50.994;4.538;2023-03-14T13:31:56;9.18;;;1.67;;
15990;SDS011;8100;50.994;4.538;2023-03-14T13:34:45;8.90;;;1.60;;
15990;SDS011;8100;50.994;4.538;2023-03-14T13:37:39;8.05;;;1.55;;
15990;SDS011;8100;50.994;4.538;2023-03-14T13:40:30;10.63;;;1.45;;
15990;SDS011;8100;50.994;4.538;2023-03-14T13:43:19;12.77;;;1.50;;
15990;SDS011;8100;50.994;4.538;2023-03-14T13:46:12;9.30;;;1.80;;
15990;SDS011;8100;50.994;4.538;2023-03-14T13:49:01;6.70;;;1.45;;
15990;SDS011;8100;50.994;4.538;2023-03-14T13:51:50;9.32;;;1.55;;
15990;SDS011;8100;50.994;4.538;2023-03-14T13:54:38;10.55;;;1.70;;
15990;SDS011;8100;50.994;4.538;2023-03-14T13:57:27;8.60;;;1.70;;
15990;SDS011;8100;50.994;4.538;2023-03-14T14:00:17;7.57;;;1.65;;
15990;SDS011;8100;50.994;4.538;2023-03-14T14:03:08;8.40;;;1.98;;
15990;SDS011;8100;50.994;4.538;2023-03-14T14:05:57;10.60;;;1.90;;
15990;SDS011;8100;50.994;4.538;2023-03-14T14:08:45;11.65;;;3.10;;
15990;SDS011;8100;50.994;4.538;2023-03-14T14:11:35;9.77;;;2.00;;
15990;SDS011;8100;50.994;4.538;2023-03-14T14:14:28;11.45;;;1.90;;
15990;SDS011;8100;50.994;4.538;2023-03-14T14:17:20;6.13;;;1.40;;
15990;SDS011;8100;50.994;4.538;2023-03-14T14:20:12;7.22;;;1.67;;
15990;SDS011;8100;50.994;4.538;2023-03-14T14:23:04;9.32;;;1.65;;
15990;SDS011;8100;50.994;4.538;2023-03-14T14:25:53;5.15;;;1.20;;
15990;SDS011;8100;50.994;4.538;2023-03-14T14:28:41;8.32;;;1.42;;
15990;SDS011;8100;50.994;4.538;2023-03-14T14:31:29;8.23;;;1.60;;
15990;SDS011;8100;50.994;4.538;2023-03-14T14:34:18;4.78;;;1.38;;
15990;SDS011;8100;50.994;4.538;2023-03-14T14:37:14;7.15;;;1.05;;
15990;SDS011;8100;50.994;4.538;2023-03-14T14:40:07;5.97;;;1.05;;
15990;SDS011;8100;50.994;4.538;2023-03-14T14:43:01;2.88;;;0.60;;
15990;SDS011;8100;50.994;4.538;2023-03-14T14:45:50;4.18;;;0.77;;
15990;SDS011;8100;50.994;4.538;2023-03-14T14:48:40;3.13;;;0.52;;
15990;SDS011;8100;50.994;4.538;2023-03-14T14:51:31;3.53;;;1.00;;
15990;SDS011;8100;50.994;4.538;2023-03-14T14:54:20;1.77;;;0.60;;
15990;SDS011;8100;50.994;4.538;2023-03-14T14:57:21;1.33;;;0.63;;
15990;SDS011;8100;50.994;4.538;2023-03-14T15:00:17;2.42;;;0.90;;
15990;SDS011;8100;50.994;4.538;2023-03-14T15:03:10;2.95;;;0.85;;
15990;SDS011;8100;50.994;4.538;2023-03-14T15:06:03;2.65;;;0.60;;
15990;SDS011;8100;50.994;4.538;2023-03-14T15:08:50;3.60;;;0.80;;
15990;SDS011;8100;50.994;4.538;2023-03-14T15:11:39;2.42;;;0.68;;
15990;SDS011;8100;50.994;4.538;2023-03-14T15:14:26;1.92;;;0.60;;
15990;SDS011;8100;50.994;4.538;2023-03-14T15:17:13;4.25;;;0.73;;
15990;SDS011;8100;50.994;4.538;2023-03-14T15:20:01;3.03;;;0.93;;
15990;SDS011;8100;50.994;4.538;2023-03-14T15:22:51;4.63;;;0.80;;
15990;SDS011;8100;50.994;4.538;2023-03-14T15:25:38;2.47;;;0.70;;
15990;SDS011;8100;50.994;4.538;2023-03-14T15:28:26;4.97;;;0.77;;
15990;SDS011;8100;50.994;4.538;2023-03-14T15:31:15;4.30;;;0.82;;
15990;SDS011;8100;50.994;4.538;2023-03-14T15:34:03;5.38;;;1.10;;
15990;SDS011;8100;50.994;4.538;2023-03-14T15:36:51;3.22;;;0.90;;
15990;SDS011;8100;50.994;4.538;2023-03-14T15:39:39;4.90;;;1.70;;
15990;SDS011;8100;50.994;4.538;2023-03-14T15:42:28;5.25;;;0.80;;
15990;SDS011;8100;50.994;4.538;2023-03-14T15:45:15;5.10;;;0.95;;
15990;SDS011;8100;50.994;4.538;2023-03-14T15:48:03;6.10;;;1.20;;
15990;SDS011;8100;50.994;4.538;2023-03-14T15:50:50;6.40;;;1.10;;
15990;SDS011;8100;50.994;4.538;2023-03-14T15:53:37;8.00;;;1.30;;
15990;SDS011;8100;50.994;4.538;2023-03-14T15:56:26;6.10;;;1.30;;
15990;SDS011;8100;50.994;4.538;2023-03-14T15:59:16;8.20;;;1.30;;
15990;SDS011;8100;50.994;4.538;2023-03-14T16:02:03;7.28;;;1.10;;
15990;SDS011;8100;50.994;4.538;2023-03-14T16:04:50;4.10;;;0.98;;
15990;SDS011;8100;50.994;4.538;2023-03-14T16:07:37;6.30;;;1.10;;
15990;SDS011;8100;50.994;4.538;2023-03-14T16:10:25;10.20;;;1.23;;
15990;SDS011;8100;50.994;4.538;2023-03-14T16:13:14;7.15;;;1.25;;
15990;SDS011;8100;50.994;4.538;2023-03-14T16:16:02;7.65;;;1.13;;
15990;SDS011;8100;50.994;4.538;2023-03-14T16:18:50;5.45;;;1.45;;
15990;SDS011;8100;50.994;4.538;2023-03-14T16:21:37;7.63;;;1.27;;
15990;SDS011;8100;50.994;4.538;2023-03-14T16:24:25;6.45;;;1.20;;
15990;SDS011;8100;50.994;4.538;2023-03-14T16:27:12;5.32;;;1.20;;
15990;SDS011;8100;50.994;4.538;2023-03-14T16:30:00;4.70;;;1.25;;
15990;SDS011;8100;50.994;4.538;2023-03-14T16:32:48;9.52;;;1.35;;
15990;SDS011;8100;50.994;4.538;2023-03-14T16:35:35;9.93;;;1.48;;
15990;SDS011;8100;50.994;4.538;2023-03-14T16:38:22;7.38;;;1.45;;
15990;SDS011;8100;50.994;4.538;2023-03-14T16:41:11;6.80;;;1.20;;
15990;SDS011;8100;50.994;4.538;2023-03-14T16:43:59;5.53;;;0.98;;
15990;SDS011;8100;50.994;4.538;2023-03-14T16:46:48;4.60;;;0.90;;
15990;SDS011;8100;50.994;4.538;2023-03-14T16:49:35;4.00;;;0.77;;
15990;SDS011;8100;50.994;4.538;2023-03-14T16:52:23;8.65;;;1.30;;
15990;SDS011;8100;50.994;4.538;2023-03-14T16:55:11;4.63;;;1.13;;
15990;SDS011;8100;50.994;4.538;2023-03-14T16:57:58;5.47;;;1.15;;
15990;SDS011;8100;50.994;4.538;2023-03-14T17:00:45;8.32;;;1.27;;
15990;SDS011;8100;50.994;4.538;2023-03-14T17:03:34;4.70;;;1.13;;
15990;SDS011;8100;50.994;4.538;2023-03-14T17:06:23;6.03;;;1.00;;
15990;SDS011;8100;50.994;4.538;2023-03-14T17:09:11;5.10;;;1.30;;
15990;SDS011;8100;50.994;4.538;2023-03-14T17:11:58;5.32;;;1.10;;
15990;SDS011;8100;50.994;4.538;2023-03-14T17:14:46;10.18;;;2.42;;
15990;SDS011;8100;50.994;4.538;2023-03-14T17:17:33;10.20;;;1.90;;
15990;SDS011;8100;50.994;4.538;2023-03-14T17:20:21;5.20;;;1.17;;
15990;SDS011;8100;50.994;4.538;2023-03-14T17:23:08;6.05;;;1.48;;
15990;SDS011;8100;50.994;4.538;2023-03-14T17:25:56;5.13;;;1.75;;
15990;SDS011;8100;50.994;4.538;2023-03-14T17:28:43;6.95;;;1.80;;